sensor_id;sensor_type;location;lat;lon;timestamp;P1;durP1;ratioP1;P2;durP2;ratioP2
64282;SDS011;50497;50.720;-2.084;2023-06-10T00:01:31;15.65;;;9.98;;
64282;SDS011;50497;50.720;-2.084;2023-06-10T00:03:56;16.92;;;10.18;;
64282;SDS011;50497;50.720;-2.084;2023-06-10T00:06:22;15.35;;;10.45;;
64282;SDS011;50497;50.720;-2.084;2023-06-10T00:08:49;17.92;;;10.55;;
64282;SDS011;50497;50.720;-2.084;2023-06-10T00:11:15;16.38;;;11.07;;
64282;SDS011;50497;50.720;-2.084;2023-06-10T00:13:41;18.50;;;11.05;;
64282;SDS011;50497;50.720;-2.084;2023-06-10T00:16:06;16.48;;;10.30;;
64282;SDS011;50497;50.720;-2.084;2023-06-10T00:18:31;17.38;;;10.82;;
64282;SDS011;50497;50.720;-2.084;2023-06-10T00:20:57;17.05;;;11.30;;
64282;SDS011;50497;50.720;-2.084;2023-06-10T00:23:29;16.92;;;10.90;;
64282;SDS011;50497;50.720;-2.084;2023-06-10T00:25:57;16.55;;;10.30;;
64282;SDS011;50497;50.720;-2.084;2023-06-10T00:28:24;20.67;;;11.77;;
64282;SDS011;50497;50.720;-2.084;2023-06-10T00:30:49;16.67;;;10.52;;
64282;SDS011;50497;50.720;-2.084;2023-06-10T00:33:15;18.08;;;11.38;;
64282;SDS011;50497;50.720;-2.084;2023-06-10T00:35:40;17.45;;;10.85;;
64282;SDS011;50497;50.720;-2.084;2023-06-10T00:38:06;16.52;;;11.18;;
64282;SDS011;50497;50.720;-2.084;2023-06-10T00:40:33;19.80;;;10.88;;
64282;SDS011;50497;50.720;-2.084;2023-06-10T00:43:03;17.73;;;10.65;;
64282;SDS011;50497;50.720;-2.084;2023-06-10T00:45:29;17.50;;;11.15;;
64282;SDS011;50497;50.720;-2.084;2023-06-10T00:47:55;17.10;;;10.93;;
64282;SDS011;50497;50.720;-2.084;2023-06-10T00:52:46;18.52;;;11.07;;
64282;SDS011;50497;50.720;-2.084;2023-06-10T00:55:13;16.95;;;11.00;;
64282;SDS011;50497;50.720;-2.084;2023-06-10T00:57:43;18.42;;;11.30;;
64282;SDS011;50497;50.720;-2.084;2023-06-10T01:00:10;18.17;;;10.73;;
64282;SDS011;50497;50.720;-2.084;2023-06-10T01:02:36;19.65;;;11.32;;
64282;SDS011;50497;50.720;-2.084;2023-06-10T01:05:01;18.48;;;11.30;;
64282;SDS011;50497;50.720;-2.084;2023-06-10T01:07:34;18.83;;;11.85;;
64282;SDS011;50497;50.720;-2.084;2023-06-10T01:10:13;20.13;;;11.50;;
64282;SDS011;50497;50.720;-2.084;2023-06-10T01:13:03;19.08;;;10.75;;
64282;SDS011;50497;50.720;-2.084;2023-06-10T01:15:33;17.52;;;11.10;;
64282;SDS011;50497;50.720;-2.084;2023-06-10T01:18:01;19.77;;;11.90;;
64282;SDS011;50497;50.720;-2.084;2023-06-10T01:20:29;18.90;;;11.43;;
64282;SDS011;50497;50.720;-2.084;2023-06-10T01:22:57;17.13;;;11.13;;
64282;SDS011;50497;50.720;-2.084;2023-06-10T01:25:24;17.17;;;10.95;;
64282;SDS011;50497;50.720;-2.084;2023-06-10T01:27:58;19.52;;;11.40;;
64282;SDS011;50497;50.720;-2.084;2023-06-10T01:30:30;17.98;;;11.50;;
64282;SDS011;50497;50.720;-2.084;2023-06-10T01:33:02;20.83;;;11.13;;
64282;SDS011;50497;50.720;-2.084;2023-06-10T01:35:34;16.83;;;11.55;;
64282;SDS011;50497;50.720;-2.084;2023-06-10T01:38:03;18.88;;;11.60;;
64282;SDS011;50497;50.720;-2.084;2023-06-10T01:40:29;19.85;;;12.05;;
64282;SDS011;50497;50.720;-2.084;2023-06-10T01:42:56;19.50;;;11.55;;
64282;SDS011;50497;50.720;-2.084;2023-06-10T01:45:21;19.02;;;11.68;;
64282;SDS011;50497;50.720;-2.084;2023-06-10T01:47:46;21.60;;;11.93;;
64282;SDS011;50497;50.720;-2.084;2023-06-10T01:50:12;20.80;;;12.32;;
64282;SDS011;50497;50.720;-2.084;2023-06-10T01:52:37;22.92;;;11.65;;
64282;SDS011;50497;50.720;-2.084;2023-06-10T01:55:03;18.70;;;11.10;;
64282;SDS011;50497;50.720;-2.084;2023-06-10T01:57:29;22.25;;;12.57;;
64282;SDS011;50497;50.720;-2.084;2023-06-10T01:59:55;20.85;;;11.95;;
64282;SDS011;50497;50.720;-2.084;2023-06-10T02:02:20;22.35;;;11.90;;
64282;SDS011;50497;50.720;-2.084;2023-06-10T02:04:47;19.10;;;11.60;;
64282;SDS011;50497;50.720;-2.084;2023-06-10T02:07:12;20.73;;;11.48;;
64282;SDS011;50497;50.720;-2.084;2023-06-10T02:09:37;21.70;;;11.30;;
64282;SDS011;50497;50.720;-2.084;2023-06-10T02:12:03;19.40;;;11.68;;
64282;SDS011;50497;50.720;-2.084;2023-06-10T02:14:29;20.52;;;12.43;;
64282;SDS011;50497;50.720;-2.084;2023-06-10T02:16:54;19.63;;;11.93;;
64282;SDS011;50497;50.720;-2.084;2023-06-10T02:19:21;20.23;;;11.88;;
64282;SDS011;50497;50.720;-2.084;2023-06-10T02:21:47;22.20;;;11.95;;
64282;SDS011;50497;50.720;-2.084;2023-06-10T02:24:13;20.83;;;11.57;;
64282;SDS011;50497;50.720;-2.084;2023-06-10T02:26:38;21.15;;;11.63;;
64282;SDS011;50497;50.720;-2.084;2023-06-10T02:29:05;21.85;;;12.10;;
64282;SDS011;50497;50.720;-2.084;2023-06-10T02:31:30;20.85;;;12.82;;
64282;SDS011;50497;50.720;-2.084;2023-06-10T02:33:55;19.60;;;11.75;;
64282;SDS011;50497;50.720;-2.084;2023-06-10T02:36:21;21.17;;;11.50;;
64282;SDS011;50497;50.720;-2.084;2023-06-10T02:38:49;20.00;;;11.10;;
64282;SDS011;50497;50.720;-2.084;2023-06-10T02:41:14;21.52;;;11.40;;
64282;SDS011;50497;50.720;-2.084;2023-06-10T02:43:41;22.08;;;11.55;;
64282;SDS011;50497;50.720;-2.084;2023-06-10T02:46:06;23.48;;;12.70;;
64282;SDS011;50497;50.720;-2.084;2023-06-10T02:48:31;23.10;;;12.20;;
64282;SDS011;50497;50.720;-2.084;2023-06-10T02:51:05;21.35;;;12.23;;
64282;SDS011;50497;50.720;-2.084;2023-06-10T02:53:30;22.83;;;12.68;;
64282;SDS011;50497;50.720;-2.084;2023-06-10T02:55:56;21.70;;;11.38;;
64282;SDS011;50497;50.720;-2.084;2023-06-10T02:58:21;26.20;;;12.50;;
64282;SDS011;50497;50.720;-2.084;2023-06-10T03:00:47;24.73;;;11.63;;
64282;SDS011;50497;50.720;-2.084;2023-06-10T03:03:12;22.45;;;13.63;;
64282;SDS011;50497;50.720;-2.084;2023-06-10T03:05:38;19.67;;;12.02;;
64282;SDS011;50497;50.720;-2.084;2023-06-10T03:08:04;20.40;;;12.13;;
64282;SDS011;50497;50.720;-2.084;2023-06-10T03:10:29;19.77;;;11.73;;
64282;SDS011;50497;50.720;-2.084;2023-06-10T03:12:54;25.67;;;13.15;;
64282;SDS011;50497;50.720;-2.084;2023-06-10T03:15:20;22.35;;;11.40;;
64282;SDS011;50497;50.720;-2.084;2023-06-10T03:17:45;21.67;;;12.82;;
64282;SDS011;50497;50.720;-2.084;2023-06-10T03:20:11;23.02;;;11.93;;
64282;SDS011;50497;50.720;-2.084;2023-06-10T03:25:04;23.50;;;11.90;;
64282;SDS011;50497;50.720;-2.084;2023-06-10T03:27:30;21.10;;;11.93;;
64282;SDS011;50497;50.720;-2.084;2023-06-10T03:29:56;21.35;;;12.15;;
64282;SDS011;50497;50.720;-2.084;2023-06-10T03:32:21;23.38;;;13.35;;
64282;SDS011;50497;50.720;-2.084;2023-06-10T03:34:47;20.48;;;11.48;;
64282;SDS011;50497;50.720;-2.084;2023-06-10T03:37:12;23.35;;;11.50;;
64282;SDS011;50497;50.720;-2.084;2023-06-10T03:39:38;22.10;;;11.48;;
64282;SDS011;50497;50.720;-2.084;2023-06-10T03:42:04;19.13;;;11.45;;
64282;SDS011;50497;50.720;-2.084;2023-06-10T03:44:29;24.15;;;11.65;;
64282;SDS011;50497;50.720;-2.084;2023-06-10T03:46:55;24.10;;;12.50;;
64282;SDS011;50497;50.720;-2.084;2023-06-10T03:49:21;21.08;;;12.13;;
64282;SDS011;50497;50.720;-2.084;2023-06-10T03:51:53;21.48;;;12.38;;
64282;SDS011;50497;50.720;-2.084;2023-06-10T03:54:19;25.05;;;11.98;;
64282;SDS011;50497;50.720;-2.084;2023-06-10T03:56:44;21.77;;;12.27;;
64282;SDS011;50497;50.720;-2.084;2023-06-10T03:59:09;25.35;;;12.32;;
64282;SDS011;50497;50.720;-2.084;2023-06-10T04:01:35;21.67;;;11.25;;
64282;SDS011;50497;50.720;-2.084;2023-06-10T04:04:02;21.50;;;11.55;;
64282;SDS011;50497;50.720;-2.084;2023-06-10T04:06:27;21.38;;;12.18;;
64282;SDS011;50497;50.720;-2.084;2023-06-10T04:08:54;22.30;;;11.65;;
64282;SDS011;50497;50.720;-2.084;2023-06-10T04:11:21;22.40;;;11.90;;
64282;SDS011;50497;50.720;-2.084;2023-06-10T04:13:46;21.42;;;10.98;;
64282;SDS011;50497;50.720;-2.084;2023-06-10T04:16:11;20.40;;;11.48;;
64282;SDS011;50497;50.720;-2.084;2023-06-10T04:18:37;24.98;;;11.25;;
64282;SDS011;50497;50.720;-2.084;2023-06-10T04:21:02;22.58;;;11.80;;
64282;SDS011;50497;50.720;-2.084;2023-06-10T04:23:27;24.48;;;12.45;;
64282;SDS011;50497;50.720;-2.084;2023-06-10T04:25:54;22.83;;;11.80;;
64282;SDS011;50497;50.720;-2.084;2023-06-10T04:28:19;21.95;;;12.10;;
64282;SDS011;50497;50.720;-2.084;2023-06-10T04:30:44;25.73;;;12.30;;
64282;SDS011;50497;50.720;-2.084;2023-06-10T04:35:36;21.40;;;11.47;;
64282;SDS011;50497;50.720;-2.084;2023-06-10T04:38:01;26.20;;;11.90;;
64282;SDS011;50497;50.720;-2.084;2023-06-10T04:40:28;25.33;;;11.48;;
64282;SDS011;50497;50.720;-2.084;2023-06-10T04:42:53;21.20;;;11.43;;
64282;SDS011;50497;50.720;-2.084;2023-06-10T04:45:18;21.95;;;11.52;;
64282;SDS011;50497;50.720;-2.084;2023-06-10T04:47:45;22.50;;;10.93;;
64282;SDS011;50497;50.720;-2.084;2023-06-10T04:50:11;22.38;;;12.10;;
64282;SDS011;50497;50.720;-2.084;2023-06-10T04:52:37;24.27;;;12.50;;
64282;SDS011;50497;50.720;-2.084;2023-06-10T04:55:02;22.92;;;11.63;;
64282;SDS011;50497;50.720;-2.084;2023-06-10T04:57:27;26.42;;;11.07;;
64282;SDS011;50497;50.720;-2.084;2023-06-10T04:59:53;23.02;;;10.07;;
64282;SDS011;50497;50.720;-2.084;2023-06-10T05:02:18;23.15;;;11.80;;
64282;SDS011;50497;50.720;-2.084;2023-06-10T05:04:44;22.48;;;11.25;;
64282;SDS011;50497;50.720;-2.084;2023-06-10T05:07:09;20.60;;;10.77;;
64282;SDS011;50497;50.720;-2.084;2023-06-10T05:09:35;22.58;;;11.00;;
64282;SDS011;50497;50.720;-2.084;2023-06-10T05:12:00;23.70;;;11.93;;
64282;SDS011;50497;50.720;-2.084;2023-06-10T05:14:26;21.55;;;11.50;;
64282;SDS011;50497;50.720;-2.084;2023-06-10T05:19:18;23.38;;;10.40;;
64282;SDS011;50497;50.720;-2.084;2023-06-10T05:21:44;26.38;;;10.73;;
64282;SDS011;50497;50.720;-2.084;2023-06-10T05:24:10;22.73;;;10.32;;
64282;SDS011;50497;50.720;-2.084;2023-06-10T05:26:36;20.88;;;10.90;;
64282;SDS011;50497;50.720;-2.084;2023-06-10T05:29:04;23.75;;;10.90;;
64282;SDS011;50497;50.720;-2.084;2023-06-10T05:31:30;20.77;;;10.32;;
64282;SDS011;50497;50.720;-2.084;2023-06-10T05:33:56;23.70;;;10.80;;
64282;SDS011;50497;50.720;-2.084;2023-06-10T05:36:22;21.55;;;10.23;;
64282;SDS011;50497;50.720;-2.084;2023-06-10T05:38:50;18.60;;;9.55;;
64282;SDS011;50497;50.720;-2.084;2023-06-10T05:41:15;20.55;;;10.18;;
64282;SDS011;50497;50.720;-2.084;2023-06-10T05:43:41;20.92;;;9.70;;
64282;SDS011;50497;50.720;-2.084;2023-06-10T05:46:06;18.13;;;9.95;;
64282;SDS011;50497;50.720;-2.084;2023-06-10T05:48:31;19.80;;;9.90;;
64282;SDS011;50497;50.720;-2.084;2023-06-10T05:50:57;22.08;;;10.77;;
64282;SDS011;50497;50.720;-2.084;2023-06-10T05:53:22;22.15;;;10.48;;
64282;SDS011;50497;50.720;-2.084;2023-06-10T05:55:47;23.05;;;10.00;;
64282;SDS011;50497;50.720;-2.084;2023-06-10T05:58:13;21.65;;;9.63;;
64282;SDS011;50497;50.720;-2.084;2023-06-10T06:00:39;21.50;;;9.48;;
64282;SDS011;50497;50.720;-2.084;2023-06-10T06:03:08;21.60;;;10.00;;
64282;SDS011;50497;50.720;-2.084;2023-06-10T06:05:34;19.30;;;9.95;;
64282;SDS011;50497;50.720;-2.084;2023-06-10T06:10:35;18.85;;;9.23;;
64282;SDS011;50497;50.720;-2.084;2023-06-10T06:13:01;18.17;;;9.68;;
64282;SDS011;50497;50.720;-2.084;2023-06-10T06:15:27;19.73;;;10.13;;
64282;SDS011;50497;50.720;-2.084;2023-06-10T06:17:52;20.92;;;9.30;;
64282;SDS011;50497;50.720;-2.084;2023-06-10T06:20:18;22.30;;;9.98;;
64282;SDS011;50497;50.720;-2.084;2023-06-10T06:22:44;18.83;;;8.70;;
64282;SDS011;50497;50.720;-2.084;2023-06-10T06:25:10;23.38;;;10.30;;
64282;SDS011;50497;50.720;-2.084;2023-06-10T06:27:35;19.13;;;8.90;;
64282;SDS011;50497;50.720;-2.084;2023-06-10T06:30:01;16.83;;;8.57;;
64282;SDS011;50497;50.720;-2.084;2023-06-10T06:32:26;19.92;;;9.25;;
64282;SDS011;50497;50.720;-2.084;2023-06-10T06:34:52;17.70;;;8.75;;
64282;SDS011;50497;50.720;-2.084;2023-06-10T06:37:19;17.83;;;9.20;;
64282;SDS011;50497;50.720;-2.084;2023-06-10T06:39:50;21.80;;;9.30;;
64282;SDS011;50497;50.720;-2.084;2023-06-10T06:44:42;17.03;;;8.50;;
64282;SDS011;50497;50.720;-2.084;2023-06-10T06:47:07;19.58;;;8.98;;
64282;SDS011;50497;50.720;-2.084;2023-06-10T06:49:33;17.83;;;8.38;;
64282;SDS011;50497;50.720;-2.084;2023-06-10T06:51:58;20.83;;;9.68;;
64282;SDS011;50497;50.720;-2.084;2023-06-10T06:54:23;18.95;;;8.63;;
64282;SDS011;50497;50.720;-2.084;2023-06-10T06:56:49;18.60;;;9.18;;
64282;SDS011;50497;50.720;-2.084;2023-06-10T06:59:15;17.25;;;8.63;;
64282;SDS011;50497;50.720;-2.084;2023-06-10T07:01:42;18.42;;;9.48;;
64282;SDS011;50497;50.720;-2.084;2023-06-10T07:06:33;19.27;;;8.50;;
64282;SDS011;50497;50.720;-2.084;2023-06-10T07:08:58;16.80;;;8.52;;
64282;SDS011;50497;50.720;-2.084;2023-06-10T07:13:50;16.23;;;8.15;;
64282;SDS011;50497;50.720;-2.084;2023-06-10T07:18:40;15.85;;;7.68;;
64282;SDS011;50497;50.720;-2.084;2023-06-10T07:23:31;21.30;;;8.67;;
64282;SDS011;50497;50.720;-2.084;2023-06-10T07:28:22;18.50;;;8.17;;
64282;SDS011;50497;50.720;-2.084;2023-06-10T07:33:12;16.10;;;8.60;;
64282;SDS011;50497;50.720;-2.084;2023-06-10T07:35:38;17.75;;;8.55;;
64282;SDS011;50497;50.720;-2.084;2023-06-10T07:38:03;18.30;;;8.77;;
64282;SDS011;50497;50.720;-2.084;2023-06-10T07:40:28;14.43;;;8.35;;
64282;SDS011;50497;50.720;-2.084;2023-06-10T07:42:54;19.10;;;9.35;;
64282;SDS011;50497;50.720;-2.084;2023-06-10T07:45:20;19.08;;;8.75;;
64282;SDS011;50497;50.720;-2.084;2023-06-10T07:47:45;15.75;;;8.30;;
64282;SDS011;50497;50.720;-2.084;2023-06-10T07:50:11;17.20;;;8.85;;
64282;SDS011;50497;50.720;-2.084;2023-06-10T07:55:01;15.27;;;7.90;;
64282;SDS011;50497;50.720;-2.084;2023-06-10T07:57:27;16.02;;;8.65;;
64282;SDS011;50497;50.720;-2.084;2023-06-10T07:59:52;15.95;;;8.15;;
64282;SDS011;50497;50.720;-2.084;2023-06-10T08:02:19;13.82;;;9.00;;
64282;SDS011;50497;50.720;-2.084;2023-06-10T08:04:45;14.05;;;8.52;;
64282;SDS011;50497;50.720;-2.084;2023-06-10T08:07:10;17.63;;;9.07;;
64282;SDS011;50497;50.720;-2.084;2023-06-10T08:09:36;15.65;;;8.27;;
64282;SDS011;50497;50.720;-2.084;2023-06-10T08:12:01;15.25;;;8.13;;
64282;SDS011;50497;50.720;-2.084;2023-06-10T08:14:26;16.10;;;8.18;;
64282;SDS011;50497;50.720;-2.084;2023-06-10T08:16:52;17.35;;;8.45;;
64282;SDS011;50497;50.720;-2.084;2023-06-10T08:19:17;14.88;;;8.48;;
64282;SDS011;50497;50.720;-2.084;2023-06-10T08:21:43;13.75;;;7.63;;
64282;SDS011;50497;50.720;-2.084;2023-06-10T08:24:09;14.55;;;8.27;;
64282;SDS011;50497;50.720;-2.084;2023-06-10T08:26:34;18.92;;;8.52;;
64282;SDS011;50497;50.720;-2.084;2023-06-10T08:29:00;15.15;;;8.48;;
64282;SDS011;50497;50.720;-2.084;2023-06-10T08:31:25;15.98;;;8.55;;
64282;SDS011;50497;50.720;-2.084;2023-06-10T08:33:51;13.98;;;8.02;;
64282;SDS011;50497;50.720;-2.084;2023-06-10T08:36:16;14.65;;;8.80;;
64282;SDS011;50497;50.720;-2.084;2023-06-10T08:38:42;15.95;;;8.32;;
64282;SDS011;50497;50.720;-2.084;2023-06-10T08:41:07;16.48;;;8.45;;
64282;SDS011;50497;50.720;-2.084;2023-06-10T08:43:46;16.70;;;8.63;;
64282;SDS011;50497;50.720;-2.084;2023-06-10T08:46:19;15.18;;;8.70;;
64282;SDS011;50497;50.720;-2.084;2023-06-10T08:48:45;15.05;;;8.48;;
64282;SDS011;50497;50.720;-2.084;2023-06-10T08:53:48;14.27;;;8.32;;
64282;SDS011;50497;50.720;-2.084;2023-06-10T08:56:19;15.23;;;8.48;;
64282;SDS011;50497;50.720;-2.084;2023-06-10T08:58:46;14.30;;;8.13;;
64282;SDS011;50497;50.720;-2.084;2023-06-10T09:01:13;13.77;;;8.27;;
64282;SDS011;50497;50.720;-2.084;2023-06-10T09:03:39;13.07;;;8.65;;
64282;SDS011;50497;50.720;-2.084;2023-06-10T09:06:05;13.68;;;8.52;;
64282;SDS011;50497;50.720;-2.084;2023-06-10T09:08:33;14.90;;;8.05;;
64282;SDS011;50497;50.720;-2.084;2023-06-10T09:11:00;15.48;;;8.38;;
64282;SDS011;50497;50.720;-2.084;2023-06-10T09:13:26;16.23;;;8.68;;
64282;SDS011;50497;50.720;-2.084;2023-06-10T09:15:51;16.58;;;8.40;;
64282;SDS011;50497;50.720;-2.084;2023-06-10T09:18:16;13.63;;;8.40;;
64282;SDS011;50497;50.720;-2.084;2023-06-10T09:20:43;14.52;;;9.55;;
64282;SDS011;50497;50.720;-2.084;2023-06-10T09:23:08;17.40;;;8.45;;
64282;SDS011;50497;50.720;-2.084;2023-06-10T09:25:37;14.85;;;8.73;;
64282;SDS011;50497;50.720;-2.084;2023-06-10T09:28:03;15.02;;;8.98;;
64282;SDS011;50497;50.720;-2.084;2023-06-10T09:30:30;12.93;;;8.27;;
64282;SDS011;50497;50.720;-2.084;2023-06-10T09:32:57;13.13;;;8.77;;
64282;SDS011;50497;50.720;-2.084;2023-06-10T09:35:24;14.27;;;9.00;;
64282;SDS011;50497;50.720;-2.084;2023-06-10T09:37:57;13.88;;;9.10;;
64282;SDS011;50497;50.720;-2.084;2023-06-10T09:40:25;13.63;;;9.00;;
64282;SDS011;50497;50.720;-2.084;2023-06-10T09:42:54;14.40;;;8.43;;
64282;SDS011;50497;50.720;-2.084;2023-06-10T09:45:31;12.63;;;9.07;;
64282;SDS011;50497;50.720;-2.084;2023-06-10T09:47:57;15.48;;;9.10;;
64282;SDS011;50497;50.720;-2.084;2023-06-10T09:50:22;15.13;;;9.02;;
64282;SDS011;50497;50.720;-2.084;2023-06-10T09:52:48;14.43;;;9.05;;
64282;SDS011;50497;50.720;-2.084;2023-06-10T09:55:17;15.52;;;9.27;;
64282;SDS011;50497;50.720;-2.084;2023-06-10T09:57:43;13.88;;;8.60;;
64282;SDS011;50497;50.720;-2.084;2023-06-10T10:00:12;17.35;;;8.52;;
64282;SDS011;50497;50.720;-2.084;2023-06-10T10:05:16;17.15;;;10.00;;
64282;SDS011;50497;50.720;-2.084;2023-06-10T10:07:43;16.33;;;9.70;;
64282;SDS011;50497;50.720;-2.084;2023-06-10T10:10:09;14.20;;;9.02;;
64282;SDS011;50497;50.720;-2.084;2023-06-10T10:12:36;13.30;;;8.70;;
64282;SDS011;50497;50.720;-2.084;2023-06-10T10:15:03;13.95;;;9.10;;
64282;SDS011;50497;50.720;-2.084;2023-06-10T10:17:30;14.55;;;9.27;;
64282;SDS011;50497;50.720;-2.084;2023-06-10T10:20:04;15.55;;;8.95;;
64282;SDS011;50497;50.720;-2.084;2023-06-10T10:22:35;16.58;;;9.32;;
64282;SDS011;50497;50.720;-2.084;2023-06-10T10:25:08;17.70;;;9.85;;
64282;SDS011;50497;50.720;-2.084;2023-06-10T10:27:43;15.23;;;9.38;;
64282;SDS011;50497;50.720;-2.084;2023-06-10T10:30:13;15.87;;;8.60;;
64282;SDS011;50497;50.720;-2.084;2023-06-10T10:32:53;13.65;;;8.98;;
64282;SDS011;50497;50.720;-2.084;2023-06-10T10:35:23;15.10;;;9.50;;
64282;SDS011;50497;50.720;-2.084;2023-06-10T10:37:53;14.82;;;8.77;;
64282;SDS011;50497;50.720;-2.084;2023-06-10T10:40:22;14.82;;;9.70;;
64282;SDS011;50497;50.720;-2.084;2023-06-10T10:42:49;13.80;;;9.48;;
64282;SDS011;50497;50.720;-2.084;2023-06-10T10:45:16;13.68;;;8.88;;
64282;SDS011;50497;50.720;-2.084;2023-06-10T10:47:42;14.32;;;9.50;;
64282;SDS011;50497;50.720;-2.084;2023-06-10T10:50:17;13.93;;;10.00;;
64282;SDS011;50497;50.720;-2.084;2023-06-10T10:53:19;17.02;;;10.70;;
64282;SDS011;50497;50.720;-2.084;2023-06-10T10:55:36;15.00;;;8.93;;
64282;SDS011;50497;50.720;-2.084;2023-06-10T10:58:05;13.95;;;9.27;;
64282;SDS011;50497;50.720;-2.084;2023-06-10T11:00:33;15.10;;;10.18;;
64282;SDS011;50497;50.720;-2.084;2023-06-10T11:05:32;15.77;;;9.40;;
64282;SDS011;50497;50.720;-2.084;2023-06-10T11:08:05;14.95;;;9.27;;
64282;SDS011;50497;50.720;-2.084;2023-06-10T11:10:32;14.55;;;9.40;;
64282;SDS011;50497;50.720;-2.084;2023-06-10T11:12:58;15.43;;;10.68;;
64282;SDS011;50497;50.720;-2.084;2023-06-10T11:15:25;17.45;;;10.10;;
64282;SDS011;50497;50.720;-2.084;2023-06-10T11:18:08;15.93;;;10.18;;
64282;SDS011;50497;50.720;-2.084;2023-06-10T11:26:09;16.15;;;10.32;;
64282;SDS011;50497;50.720;-2.084;2023-06-10T11:33:51;17.08;;;9.90;;
64282;SDS011;50497;50.720;-2.084;2023-06-10T11:36:18;16.77;;;9.98;;
64282;SDS011;50497;50.720;-2.084;2023-06-10T11:41:09;19.38;;;11.50;;
64282;SDS011;50497;50.720;-2.084;2023-06-10T11:43:36;16.38;;;10.10;;
64282;SDS011;50497;50.720;-2.084;2023-06-10T11:46:02;17.67;;;11.05;;
64282;SDS011;50497;50.720;-2.084;2023-06-10T11:48:27;14.25;;;9.73;;
64282;SDS011;50497;50.720;-2.084;2023-06-10T11:50:56;15.15;;;10.43;;
64282;SDS011;50497;50.720;-2.084;2023-06-10T11:53:21;18.13;;;11.13;;
64282;SDS011;50497;50.720;-2.084;2023-06-10T11:55:48;18.15;;;10.60;;
64282;SDS011;50497;50.720;-2.084;2023-06-10T11:58:16;16.35;;;9.80;;
64282;SDS011;50497;50.720;-2.084;2023-06-10T12:00:53;18.20;;;10.77;;
64282;SDS011;50497;50.720;-2.084;2023-06-10T12:03:23;15.05;;;10.75;;
64282;SDS011;50497;50.720;-2.084;2023-06-10T12:05:58;16.65;;;11.45;;
64282;SDS011;50497;50.720;-2.084;2023-06-10T12:08:25;17.80;;;11.38;;
64282;SDS011;50497;50.720;-2.084;2023-06-10T12:10:52;16.27;;;10.70;;
64282;SDS011;50497;50.720;-2.084;2023-06-10T12:13:18;17.52;;;11.48;;
64282;SDS011;50497;50.720;-2.084;2023-06-10T12:15:43;19.33;;;10.95;;
64282;SDS011;50497;50.720;-2.084;2023-06-10T12:18:19;16.20;;;11.02;;
64282;SDS011;50497;50.720;-2.084;2023-06-10T12:20:48;17.52;;;10.60;;
64282;SDS011;50497;50.720;-2.084;2023-06-10T12:23:14;21.20;;;12.05;;
64282;SDS011;50497;50.720;-2.084;2023-06-10T12:25:50;17.38;;;10.88;;
64282;SDS011;50497;50.720;-2.084;2023-06-10T12:28:16;16.45;;;10.52;;
64282;SDS011;50497;50.720;-2.084;2023-06-10T12:30:45;18.80;;;11.02;;
64282;SDS011;50497;50.720;-2.084;2023-06-10T12:33:17;17.38;;;10.45;;
64282;SDS011;50497;50.720;-2.084;2023-06-10T12:35:47;15.73;;;10.63;;
64282;SDS011;50497;50.720;-2.084;2023-06-10T12:38:14;17.17;;;10.80;;
64282;SDS011;50497;50.720;-2.084;2023-06-10T12:40:40;21.77;;;11.32;;
64282;SDS011;50497;50.720;-2.084;2023-06-10T12:43:06;20.23;;;11.43;;
64282;SDS011;50497;50.720;-2.084;2023-06-10T12:45:38;19.92;;;11.80;;
64282;SDS011;50497;50.720;-2.084;2023-06-10T12:48:11;19.67;;;11.25;;
64282;SDS011;50497;50.720;-2.084;2023-06-10T12:50:44;18.63;;;10.93;;
64282;SDS011;50497;50.720;-2.084;2023-06-10T12:53:12;18.92;;;11.20;;
64282;SDS011;50497;50.720;-2.084;2023-06-10T12:55:37;19.33;;;10.73;;
64282;SDS011;50497;50.720;-2.084;2023-06-10T12:58:03;18.30;;;11.20;;
64282;SDS011;50497;50.720;-2.084;2023-06-10T13:00:29;15.57;;;10.52;;
64282;SDS011;50497;50.720;-2.084;2023-06-10T13:02:59;16.35;;;11.50;;
64282;SDS011;50497;50.720;-2.084;2023-06-10T13:05:26;15.95;;;10.07;;
64282;SDS011;50497;50.720;-2.084;2023-06-10T13:07:51;25.30;;;16.00;;
64282;SDS011;50497;50.720;-2.084;2023-06-10T13:10:17;18.70;;;11.60;;
64282;SDS011;50497;50.720;-2.084;2023-06-10T13:12:43;21.08;;;11.98;;
64282;SDS011;50497;50.720;-2.084;2023-06-10T13:15:10;17.45;;;11.23;;
64282;SDS011;50497;50.720;-2.084;2023-06-10T13:17:36;18.40;;;11.32;;
64282;SDS011;50497;50.720;-2.084;2023-06-10T13:20:06;19.42;;;11.88;;
64282;SDS011;50497;50.720;-2.084;2023-06-10T13:22:32;19.73;;;12.10;;
64282;SDS011;50497;50.720;-2.084;2023-06-10T13:25:00;18.75;;;11.95;;
64282;SDS011;50497;50.720;-2.084;2023-06-10T13:27:25;19.20;;;11.73;;
64282;SDS011;50497;50.720;-2.084;2023-06-10T13:29:52;16.63;;;11.00;;
64282;SDS011;50497;50.720;-2.084;2023-06-10T13:32:17;17.35;;;10.90;;
64282;SDS011;50497;50.720;-2.084;2023-06-10T13:34:43;22.13;;;12.20;;
64282;SDS011;50497;50.720;-2.084;2023-06-10T13:37:08;20.20;;;11.48;;
64282;SDS011;50497;50.720;-2.084;2023-06-10T13:39:33;16.35;;;10.82;;
64282;SDS011;50497;50.720;-2.084;2023-06-10T13:41:59;16.88;;;10.85;;
64282;SDS011;50497;50.720;-2.084;2023-06-10T13:44:24;16.67;;;12.55;;
64282;SDS011;50497;50.720;-2.084;2023-06-10T13:46:50;20.00;;;11.23;;
64282;SDS011;50497;50.720;-2.084;2023-06-10T13:49:15;19.52;;;11.70;;
64282;SDS011;50497;50.720;-2.084;2023-06-10T13:51:41;18.77;;;11.55;;
64282;SDS011;50497;50.720;-2.084;2023-06-10T13:54:06;16.13;;;10.38;;
64282;SDS011;50497;50.720;-2.084;2023-06-10T13:56:32;13.77;;;10.32;;
64282;SDS011;50497;50.720;-2.084;2023-06-10T13:59:02;16.23;;;10.60;;
64282;SDS011;50497;50.720;-2.084;2023-06-10T14:01:28;16.88;;;11.88;;
64282;SDS011;50497;50.720;-2.084;2023-06-10T14:03:54;21.98;;;11.20;;
64282;SDS011;50497;50.720;-2.084;2023-06-10T14:06:19;14.88;;;10.98;;
64282;SDS011;50497;50.720;-2.084;2023-06-10T14:08:45;18.73;;;11.70;;
64282;SDS011;50497;50.720;-2.084;2023-06-10T14:11:10;16.13;;;11.07;;
64282;SDS011;50497;50.720;-2.084;2023-06-10T14:13:36;19.42;;;11.45;;
64282;SDS011;50497;50.720;-2.084;2023-06-10T14:16:03;16.45;;;11.23;;
64282;SDS011;50497;50.720;-2.084;2023-06-10T14:18:29;17.17;;;11.05;;
64282;SDS011;50497;50.720;-2.084;2023-06-10T14:20:55;17.35;;;10.77;;
64282;SDS011;50497;50.720;-2.084;2023-06-10T14:23:20;17.75;;;11.45;;
64282;SDS011;50497;50.720;-2.084;2023-06-10T14:25:46;16.80;;;10.77;;
64282;SDS011;50497;50.720;-2.084;2023-06-10T14:28:11;17.27;;;11.30;;
64282;SDS011;50497;50.720;-2.084;2023-06-10T14:30:36;18.38;;;11.20;;
64282;SDS011;50497;50.720;-2.084;2023-06-10T14:33:02;17.67;;;11.50;;
64282;SDS011;50497;50.720;-2.084;2023-06-10T14:35:27;16.00;;;11.38;;
64282;SDS011;50497;50.720;-2.084;2023-06-10T14:37:52;16.63;;;11.05;;
64282;SDS011;50497;50.720;-2.084;2023-06-10T14:40:18;15.55;;;11.40;;
64282;SDS011;50497;50.720;-2.084;2023-06-10T14:42:43;16.40;;;11.18;;
64282;SDS011;50497;50.720;-2.084;2023-06-10T16:56:25;26.10;;;19.35;;
64282;SDS011;50497;50.720;-2.084;2023-06-10T16:58:50;25.38;;;16.00;;
64282;SDS011;50497;50.720;-2.084;2023-06-10T17:01:15;17.33;;;12.70;;
64282;SDS011;50497;50.720;-2.084;2023-06-10T17:03:41;37.03;;;26.27;;
64282;SDS011;50497;50.720;-2.084;2023-06-10T17:06:06;21.67;;;14.30;;
64282;SDS011;50497;50.720;-2.084;2023-06-10T17:08:31;29.95;;;17.63;;
64282;SDS011;50497;50.720;-2.084;2023-06-10T17:10:57;23.55;;;15.48;;
64282;SDS011;50497;50.720;-2.084;2023-06-10T17:13:22;27.10;;;13.35;;
64282;SDS011;50497;50.720;-2.084;2023-06-10T17:19:09;19.60;;;12.70;;